Portada
METAR-TAF:

METAR-TAF

Aeroports :

San José del Cabo, Mèxic

latitud: 23-09N, longitud: 109-42W, altitud: 109 m

Observació

L'informe es va fer fa 8 hores i 25 minuts, a les 03:57 UTC
Vent 5 kt del Oest
Temperatura 23°C
Humitat 31%
Pressió 1013 hPa
Visibilitat: 12.9 km
Cel clar

METAR: MMSD 190357Z RTD 27005KT 8SM SKC 23/05 A2992 RMK CI

Hora: 06:22 (12:22 UTC)

Pronòstic

L'informe es va fer fa 7 hores i 32 minuts, a les 04:50 UTC
Pronòstic vàlid del 19 a les 06 UTC al 20 a les 06 UTC
Vent 5 kt del Oest
Visibilitat: 10 km
Cel clar
Evolucionant progressivament
l' 19 a les 15 UTC al 19 a les 17 UTC
Vent 10 kt del Est/Sud-Est
Temporalment
l' 19 a les 18 UTC al 19 a les 22 UTC
Vent 15 kt del Est
A partir de les 20 a les 0200 UTC
Vent 5 kt del Oest/Nord-Oest
Visibilitat: 10 km
Cel clar

TAF: MMSD 190450Z 1906/2006 27005KT P6SM SKC BECMG 1915/1917 12010KT TEMPO 1918/1922 10015KT FM200200 30005KT P6SM SKC

Observacions i pronòstics meteorològics de més de 4000 aeroports (METAR i TAF).

Les estacions disponibles són els punts grocs i vermells al mapa.

Posi el ratolí al punt desitjat per veure el nom de l'estació.

Feu clic per veure les observacions i els pronòstics meteorològics.

Per canviar el mapa: feu clic els botons verds amb una creu de color negre per apropar; al botó verd amb un guió per allunyar la imatge; o en les fletxes verdes per a mapes adjacents.


METAR-TAF: